Aviation Digital Data Service (ADDS)

Output produced by TAFs form (2156 UTC 04 August 2015)
found at http://aviationweather.gov/adds/tafs/
 
KTCC 041722Z 0418/0518 28005KT P6SM SKC 
     FM042100 16008KT P6SM FEW120 
     FM050600 21008KT P6SM SKC